Willara — VMBE — position and weather

sailwx.info

Track history (hours):
 
Tides and Currents Weather Stations Pressure Air Temp Water Temp Dewpoint Dewpoint Depression Visibility Wind Speed Wind Dir Waves Ship Positions

Willara

Last reported at 2018-Feb-17 15:55 UTC. Time now 2018-Feb-24 14:25 UTC.
Position S 33°08' E 152°17'.

Length 24 m; draft 4.2 m.

Type: Tug. MMSI: 503046960.

Date/timePositionNaut miles runAvg speedWind from/ knotsBaromVisibWave heightAir tempDewpointWater temp
2018-Feb-17 15:55S 33°08' E 152°17'811.0
2018-Feb-17 15:11S 33°02' E 152°23'411.0
2018-Feb-17 14:49S 32°59' E 152°26'410.9
2018-Feb-17 14:29S 32°56' E 152°29'510.8
2018-Feb-17 14:00S 32°52' E 152°33'911.1
2018-Feb-17 13:11S 32°44' E 152°38'211.4
2018-Feb-17 13:00S 32°42' E 152°39'25611.7
2018-Feb-16 15:03S 28°33' E 153°50'113.5
2018-Feb-16 15:00S 28°32' E 153°50'713.6
2018-Feb-16 14:30S 28°25' E 153°50'713.4
2018-Feb-16 14:00S 28°19' E 153°49'713.4
2018-Feb-16 13:30S 28°12' E 153°48'713.2
2018-Feb-16 13:00S 28°06' E 153°46'713.2
2018-Feb-16 12:30S 27°59' E 153°45'713.0
2018-Feb-16 11:59S 27°52' E 153°44'612.8
2018-Feb-16 11:30S 27°46' E 153°43'  
Track history (hours):
 
Tides and Currents Weather Stations Pressure Air Temp Water Temp Dewpoint Dewpoint Depression Visibility Wind Speed Wind Dir Waves Ship Positions

Willara

Last reported at 2018-Feb-17 15:55 UTC. Time now 2018-Feb-24 14:25 UTC.
Position S 33°08' E 152°17'.

Length 24 m; draft 4.2 m.

Type: Tug. MMSI: 503046960.

Date/timePositionNaut miles runAvg speedWind from/ knotsBaromVisibWave heightAir tempDewpointWater temp
2018-Feb-17 15:55S 33°08' E 152°17'811.0
2018-Feb-17 15:11S 33°02' E 152°23'411.0
2018-Feb-17 14:49S 32°59' E 152°26'410.9
2018-Feb-17 14:29S 32°56' E 152°29'510.8
2018-Feb-17 14:00S 32°52' E 152°33'911.1
2018-Feb-17 13:11S 32°44' E 152°38'211.4
2018-Feb-17 13:00S 32°42' E 152°39'25611.7
2018-Feb-16 15:03S 28°33' E 153°50'113.5
2018-Feb-16 15:00S 28°32' E 153°50'713.6
2018-Feb-16 14:30S 28°25' E 153°50'713.4
2018-Feb-16 14:00S 28°19' E 153°49'713.4
2018-Feb-16 13:30S 28°12' E 153°48'713.2
2018-Feb-16 13:00S 28°06' E 153°46'713.2
2018-Feb-16 12:30S 27°59' E 153°45'713.0
2018-Feb-16 11:59S 27°52' E 153°44'612.8
2018-Feb-16 11:30S 27°46' E 153°43'  

Dump ship's entire track history